createdAt,value
2023-03-25T00:00:17.281Z,2.70
2023-03-25T00:02:45.593Z,2.40
2023-03-25T00:05:14.760Z,2.57
2023-03-25T00:07:43.153Z,2.40
2023-03-25T00:10:11.129Z,2.20
2023-03-25T00:12:38.792Z,2.80
2023-03-25T00:15:11.569Z,2.60
2023-03-25T00:17:38.401Z,2.60
2023-03-25T00:20:09.602Z,2.30
2023-03-25T00:22:41.496Z,2.20
2023-03-25T00:25:17.142Z,2.60
2023-03-25T00:27:46.289Z,2.60
2023-03-25T00:30:14.527Z,2.20
2023-03-25T00:32:41.348Z,2.50
2023-03-25T00:35:08.752Z,2.37
2023-03-25T00:37:35.473Z,2.50
2023-03-25T00:40:03.646Z,2.20
2023-03-25T00:42:30.410Z,2.30
2023-03-25T00:44:57.512Z,2.63
2023-03-25T00:47:24.627Z,2.77
2023-03-25T00:49:51.894Z,3.50
2023-03-25T00:52:19.335Z,1.90
2023-03-25T00:54:46.312Z,2.53
2023-03-25T00:57:13.330Z,2.87
2023-03-25T00:59:40.481Z,2.50
2023-03-25T01:02:07.358Z,2.37
2023-03-25T01:04:35.165Z,2.80
2023-03-25T01:07:03.233Z,2.53
2023-03-25T01:09:30.429Z,2.40
2023-03-25T01:11:57.280Z,2.60
2023-03-25T01:14:29.951Z,3.07
2023-03-25T01:16:59.252Z,3.00
2023-03-25T01:19:26.828Z,3.10
2023-03-25T01:21:53.819Z,2.60
2023-03-25T01:24:20.616Z,3.10
2023-03-25T01:26:47.579Z,3.20
2023-03-25T01:29:17.222Z,3.20
2023-03-25T01:31:44.276Z,2.87
2023-03-25T01:34:12.779Z,2.57
2023-03-25T01:36:40.432Z,2.63
2023-03-25T01:39:08.720Z,3.87
2023-03-25T01:41:48.953Z,2.80
2023-03-25T01:44:20.827Z,2.70
2023-03-25T01:46:49.288Z,3.27
2023-03-25T01:49:24.111Z,3.33
2023-03-25T01:51:56.310Z,3.20
2023-03-25T01:54:23.687Z,3.27
2023-03-25T01:56:54.924Z,3.10
2023-03-25T01:59:25.930Z,3.20
2023-03-25T02:01:54.421Z,3.10
2023-03-25T02:05:01.035Z,3.33
2023-03-25T02:07:31.040Z,2.97
2023-03-25T02:10:06.805Z,2.83
2023-03-25T02:12:33.514Z,2.83
2023-03-25T02:15:03.872Z,2.70
2023-03-25T02:17:40.317Z,3.03
2023-03-25T02:20:34.675Z,2.93
2023-03-25T02:23:04.044Z,3.30
2023-03-25T02:25:54.842Z,3.37
2023-03-25T02:28:48.909Z,3.40
2023-03-25T02:31:45.318Z,3.20
2023-03-25T02:34:31.439Z,3.60
2023-03-25T02:37:22.858Z,3.10
2023-03-25T02:39:55.591Z,2.90
2023-03-25T02:42:39.612Z,3.50
2023-03-25T02:45:11.092Z,3.10
2023-03-25T02:47:44.668Z,3.43
2023-03-25T02:50:19.796Z,2.80
2023-03-25T02:52:54.231Z,3.23
2023-03-25T02:55:22.902Z,3.37
2023-03-25T02:57:53.030Z,3.00
2023-03-25T03:00:29.298Z,2.43
2023-03-25T03:02:59.533Z,2.60
2023-03-25T03:05:32.777Z,2.90
2023-03-25T03:08:09.334Z,2.10
2023-03-25T03:11:07.070Z,2.83
2023-03-25T03:13:46.974Z,2.83
2023-03-25T03:16:40.497Z,3.20
2023-03-25T03:19:34.173Z,2.77
2023-03-25T03:22:34.236Z,3.10
2023-03-25T03:25:40.217Z,3.10
2023-03-25T03:28:34.569Z,3.43
2023-03-25T03:31:11.869Z,3.10
2023-03-25T03:34:03.025Z,3.40
2023-03-25T03:36:35.108Z,2.80
2023-03-25T03:39:09.536Z,2.83
2023-03-25T03:41:42.137Z,3.13
2023-03-25T03:44:16.161Z,3.20
2023-03-25T03:47:18.320Z,3.47
2023-03-25T03:49:52.754Z,3.40
2023-03-25T03:52:28.608Z,3.10
2023-03-25T03:55:01.986Z,2.67
2023-03-25T03:57:41.360Z,3.00
2023-03-25T04:00:10.006Z,3.50
2023-03-25T04:03:14.401Z,2.80
2023-03-25T04:05:45.624Z,2.97
2023-03-25T04:08:26.620Z,3.00
2023-03-25T04:11:18.110Z,3.50
2023-03-25T04:13:47.744Z,2.77
2023-03-25T04:16:14.464Z,2.70
2023-03-25T04:18:43.480Z,2.63
2023-03-25T04:21:10.423Z,2.80
2023-03-25T04:23:39.262Z,2.50
2023-03-25T04:26:06.267Z,3.10
2023-03-25T04:28:32.984Z,3.23
2023-03-25T04:31:00.833Z,2.57
2023-03-25T04:33:31.890Z,2.63
2023-03-25T04:36:01.910Z,2.53
2023-03-25T04:38:29.380Z,3.83
2023-03-25T04:40:56.156Z,3.27
2023-03-25T04:43:23.003Z,3.13
2023-03-25T04:45:54.337Z,3.20
2023-03-25T04:48:26.002Z,2.77
2023-03-25T04:50:52.818Z,2.90
2023-03-25T04:53:19.460Z,3.17
2023-03-25T04:55:49.417Z,2.60
2023-03-25T04:58:16.445Z,3.17
2023-03-25T05:00:45.403Z,2.70
2023-03-25T05:03:12.225Z,2.83
2023-03-25T05:05:39.504Z,2.77
2023-03-25T05:08:06.253Z,2.90
2023-03-25T05:10:34.605Z,3.20
2023-03-25T05:13:03.740Z,3.30
2023-03-25T05:15:32.716Z,3.10
2023-03-25T05:17:59.417Z,2.80
2023-03-25T05:20:26.556Z,2.93
2023-03-25T05:22:53.670Z,3.00
2023-03-25T05:25:23.356Z,2.73
2023-03-25T05:27:50.298Z,3.00
2023-03-25T05:30:17.078Z,2.70
2023-03-25T05:32:45.615Z,3.30
2023-03-25T05:35:12.554Z,2.60
2023-03-25T05:37:39.462Z,2.60
2023-03-25T05:40:15.288Z,3.13
2023-03-25T05:42:46.917Z,2.67
2023-03-25T05:45:13.734Z,2.90
2023-03-25T05:47:40.494Z,2.83
2023-03-25T05:50:08.270Z,3.27
2023-03-25T05:52:36.597Z,3.83
2023-03-25T05:55:04.936Z,2.80
2023-03-25T05:57:31.575Z,2.60
2023-03-25T05:59:58.321Z,3.40
2023-03-25T06:02:25.937Z,2.80
2023-03-25T06:04:52.704Z,2.30
2023-03-25T06:07:22.318Z,3.00
2023-03-25T06:09:50.071Z,2.27
2023-03-25T06:12:21.829Z,2.77
2023-03-25T06:14:53.854Z,2.97
2023-03-25T06:17:24.877Z,2.53
2023-03-25T06:19:52.085Z,3.00
2023-03-25T06:22:22.316Z,3.37
2023-03-25T06:24:49.012Z,3.10
2023-03-25T06:27:18.117Z,3.00
2023-03-25T06:29:45.619Z,2.90
2023-03-25T06:32:14.218Z,2.80
2023-03-25T06:34:42.765Z,3.20
2023-03-25T06:37:10.861Z,2.50
2023-03-25T06:39:37.774Z,2.60
2023-03-25T06:42:06.904Z,3.30
2023-03-25T06:44:33.914Z,2.30
2023-03-25T06:47:02.424Z,3.00
2023-03-25T06:49:32.283Z,2.83
2023-03-25T06:51:58.944Z,3.07
2023-03-25T06:54:25.751Z,3.07
2023-03-25T06:56:52.428Z,2.60
2023-03-25T06:59:19.457Z,2.40
2023-03-25T07:01:46.250Z,3.13
2023-03-25T07:04:13.069Z,2.40
2023-03-25T07:06:40.542Z,3.30
2023-03-25T07:09:07.754Z,2.70
2023-03-25T07:11:34.881Z,2.80
2023-03-25T07:14:01.568Z,3.00
2023-03-25T07:16:28.821Z,3.03
2023-03-25T07:18:57.026Z,3.10
2023-03-25T07:21:23.851Z,2.40
2023-03-25T07:23:50.915Z,2.67
2023-03-25T07:26:18.281Z,3.00
2023-03-25T07:28:46.094Z,3.50
2023-03-25T07:31:14.608Z,3.50
2023-03-25T07:33:41.706Z,2.40
2023-03-25T07:36:10.968Z,3.43
2023-03-25T07:38:38.021Z,3.07
2023-03-25T07:41:10.318Z,2.67
2023-03-25T07:43:38.157Z,3.20
2023-03-25T07:46:05.843Z,3.80
2023-03-25T07:48:32.740Z,3.00
2023-03-25T07:50:59.846Z,3.33
2023-03-25T07:53:27.792Z,3.30
2023-03-25T07:55:54.650Z,3.00
2023-03-25T07:58:21.357Z,2.67
2023-03-25T08:00:48.116Z,3.00
2023-03-25T08:03:16.242Z,2.90
2023-03-25T08:05:47.761Z,2.73
2023-03-25T08:08:15.353Z,2.70
2023-03-25T08:10:47.164Z,2.47
2023-03-25T08:13:14.537Z,3.30
2023-03-25T08:15:41.404Z,3.20
2023-03-25T08:18:08.233Z,3.00
2023-03-25T08:20:36.229Z,3.30
2023-03-25T08:23:03.428Z,2.70
2023-03-25T08:25:31.582Z,3.27
2023-03-25T08:27:58.272Z,3.53
2023-03-25T08:30:25.301Z,2.97
2023-03-25T08:32:54.604Z,2.20
2023-03-25T08:35:24.333Z,4.23
2023-03-25T08:37:51.647Z,2.40
2023-03-25T08:40:18.659Z,2.80
2023-03-25T08:42:46.507Z,2.80
2023-03-25T08:45:15.158Z,2.87
2023-03-25T08:47:43.115Z,3.50
2023-03-25T08:50:10.128Z,3.30
2023-03-25T08:52:36.922Z,3.07
2023-03-25T08:55:05.496Z,3.37
2023-03-25T08:57:32.575Z,3.80
2023-03-25T08:59:59.436Z,2.93
2023-03-25T09:02:26.297Z,2.60
2023-03-25T09:04:53.019Z,4.07
2023-03-25T09:07:19.893Z,2.47
2023-03-25T09:09:47.128Z,3.07
2023-03-25T09:12:14.188Z,4.40
2023-03-25T09:14:41.228Z,3.00
2023-03-25T09:17:10.171Z,3.30
2023-03-25T09:19:39.825Z,4.40
2023-03-25T09:22:07.716Z,5.60
2023-03-25T09:24:35.808Z,3.50
2023-03-25T09:27:03.594Z,3.30
2023-03-25T09:29:31.256Z,3.10
2023-03-25T09:32:01.089Z,3.07
2023-03-25T09:34:28.778Z,2.47
2023-03-25T09:36:56.144Z,3.23
2023-03-25T09:39:23.104Z,2.33
2023-03-25T09:42:17.122Z,3.57
2023-03-25T09:45:12.052Z,2.80
2023-03-25T09:47:43.693Z,2.80
2023-03-25T09:50:15.666Z,3.03
2023-03-25T09:53:16.045Z,3.67
2023-03-25T09:55:46.720Z,3.70
2023-03-25T09:58:27.313Z,3.00
2023-03-25T10:01:05.671Z,3.00
2023-03-25T10:04:07.528Z,3.23
2023-03-25T10:06:45.631Z,4.83
2023-03-25T10:09:30.768Z,3.20
2023-03-25T10:12:03.592Z,3.07
2023-03-25T10:14:57.908Z,3.37
2023-03-25T10:18:01.443Z,3.40
2023-03-25T10:21:00.059Z,2.80
2023-03-25T10:23:32.429Z,3.20
2023-03-25T10:26:13.627Z,3.10
2023-03-25T10:28:50.722Z,2.80
2023-03-25T10:31:20.645Z,3.97
2023-03-25T10:34:00.396Z,2.73
2023-03-25T10:36:36.354Z,3.00
2023-03-25T10:39:11.280Z,3.30
2023-03-25T10:41:40.793Z,2.57
2023-03-25T10:44:11.571Z,2.70
2023-03-25T10:46:47.656Z,2.57
2023-03-25T10:49:21.981Z,2.77
2023-03-25T10:51:54.536Z,3.10
2023-03-25T10:54:25.453Z,2.93
2023-03-25T10:56:54.996Z,2.60
2023-03-25T10:59:34.823Z,2.50
2023-03-25T11:02:12.063Z,2.73
2023-03-25T11:04:43.071Z,2.30
2023-03-25T11:07:30.267Z,2.10
2023-03-25T11:10:14.526Z,2.30
2023-03-25T11:12:46.411Z,2.20
2023-03-25T11:15:15.503Z,2.33
2023-03-25T11:17:44.111Z,2.33
2023-03-25T11:20:20.503Z,1.90
2023-03-25T11:22:51.328Z,2.30
2023-03-25T11:25:29.421Z,2.80
2023-03-25T11:28:02.980Z,3.10
2023-03-25T11:30:29.843Z,3.70
2023-03-25T11:33:13.835Z,2.80
2023-03-25T11:35:45.002Z,2.80
2023-03-25T11:38:20.696Z,2.60
2023-03-25T11:40:56.886Z,3.20
2023-03-25T11:43:27.011Z,3.00
2023-03-25T11:45:54.275Z,3.33
2023-03-25T11:48:24.154Z,1.90
2023-03-25T11:51:01.227Z,2.37
2023-03-25T11:53:31.265Z,2.77
2023-03-25T11:56:04.552Z,2.60
2023-03-25T11:58:36.015Z,2.60
2023-03-25T12:01:28.333Z,2.90
2023-03-25T12:04:21.283Z,2.77
2023-03-25T12:07:08.406Z,2.43
2023-03-25T12:09:35.696Z,2.97
2023-03-25T12:12:16.379Z,3.20
2023-03-25T12:15:02.270Z,3.20
2023-03-25T12:17:49.510Z,4.70
2023-03-25T12:20:33.566Z,4.43
2023-03-25T12:23:10.363Z,2.93
2023-03-25T12:26:01.211Z,3.77
2023-03-25T12:28:58.706Z,2.93
2023-03-25T12:31:56.395Z,3.83
2023-03-25T12:34:44.304Z,3.40
2023-03-25T12:37:40.585Z,2.70
2023-03-25T12:40:22.939Z,3.77
2023-03-25T12:43:11.928Z,3.57
2023-03-25T12:45:58.129Z,2.57
2023-03-25T12:48:43.625Z,2.93
2023-03-25T12:51:33.952Z,3.27
2023-03-25T12:54:30.114Z,2.77
2023-03-25T12:57:03.018Z,3.23
2023-03-25T12:59:55.644Z,3.80
2023-03-25T13:02:43.924Z,3.10
2023-03-25T13:05:32.753Z,3.63
2023-03-25T13:08:27.346Z,3.03
2023-03-25T13:11:06.457Z,3.00
2023-03-25T13:13:36.798Z,2.53
2023-03-25T13:16:22.651Z,3.33
2023-03-25T13:19:01.827Z,3.10
2023-03-25T13:22:01.241Z,2.80
2023-03-25T13:24:52.405Z,2.77
2023-03-25T13:27:19.867Z,2.77
2023-03-25T13:29:54.272Z,2.93
2023-03-25T13:32:27.047Z,2.50
2023-03-25T13:35:11.659Z,2.70
2023-03-25T13:37:49.483Z,2.97
2023-03-25T13:40:43.714Z,3.33
2023-03-25T13:43:21.528Z,3.07
2023-03-25T13:46:07.421Z,2.83
2023-03-25T13:49:23.793Z,3.07
2023-03-25T13:51:50.683Z,3.47
2023-03-25T13:54:31.086Z,2.90
2023-03-25T13:57:19.295Z,3.10
2023-03-25T14:00:06.912Z,2.57
2023-03-25T14:02:36.794Z,3.40
2023-03-25T14:05:44.085Z,2.47
2023-03-25T14:08:26.505Z,2.33
2023-03-25T14:10:59.456Z,2.53
2023-03-25T14:13:46.469Z,2.27
2023-03-25T14:16:19.778Z,2.77
2023-03-25T14:18:50.756Z,2.30
2023-03-25T14:21:27.218Z,2.40
2023-03-25T14:24:06.911Z,3.27
2023-03-25T14:26:37.712Z,2.30
2023-03-25T14:29:48.563Z,2.10
2023-03-25T14:32:18.744Z,2.33
2023-03-25T14:34:49.390Z,2.17
2023-03-25T14:37:24.627Z,2.93
2023-03-25T14:39:52.082Z,2.80
2023-03-25T14:42:19.177Z,2.70
2023-03-25T14:44:54.124Z,3.17
2023-03-25T14:47:27.839Z,2.60
2023-03-25T14:50:07.015Z,2.70
2023-03-25T14:52:53.676Z,2.27
2023-03-25T14:55:42.220Z,2.70
2023-03-25T14:58:26.161Z,2.90
2023-03-25T15:01:04.541Z,2.70
2023-03-25T15:03:40.315Z,2.70
2023-03-25T15:06:11.431Z,3.10
2023-03-25T15:08:41.929Z,2.90
2023-03-25T15:11:18.410Z,2.87
2023-03-25T15:13:55.625Z,2.90
2023-03-25T15:16:57.495Z,3.00
2023-03-25T15:19:24.432Z,2.90
2023-03-25T15:21:57.104Z,3.23
2023-03-25T15:24:31.918Z,2.57
2023-03-25T15:27:20.271Z,2.63
2023-03-25T15:29:47.586Z,2.30
2023-03-25T15:32:48.084Z,3.13
2023-03-25T15:36:10.619Z,2.40
2023-03-25T15:39:12.947Z,2.70
2023-03-25T15:41:51.948Z,3.03
2023-03-25T15:44:41.199Z,3.43
2023-03-25T15:47:17.195Z,2.67
2023-03-25T15:49:47.110Z,3.13
2023-03-25T15:52:49.088Z,2.90
2023-03-25T15:56:00.635Z,2.77
2023-03-25T15:58:35.105Z,2.97
2023-03-25T16:01:15.407Z,3.00
2023-03-25T16:03:43.840Z,2.90
2023-03-25T16:06:16.445Z,3.50
2023-03-25T16:08:46.598Z,2.73
2023-03-25T16:11:26.004Z,3.17
2023-03-25T16:14:21.400Z,2.83
2023-03-25T16:16:56.627Z,3.03
2023-03-25T16:19:27.727Z,3.57
2023-03-25T16:21:55.552Z,4.00
2023-03-25T16:24:29.773Z,2.73
2023-03-25T16:26:56.984Z,2.77
2023-03-25T16:29:25.808Z,3.30
2023-03-25T16:32:03.382Z,2.43
2023-03-25T16:34:37.987Z,2.60
2023-03-25T16:37:07.221Z,2.60
2023-03-25T16:39:36.859Z,3.10
2023-03-25T16:42:35.514Z,2.10
2023-03-25T16:45:03.246Z,2.33
2023-03-25T16:47:33.543Z,2.30
2023-03-25T16:50:02.791Z,2.70
2023-03-25T16:52:33.408Z,2.73
2023-03-25T16:55:04.869Z,2.40
2023-03-25T16:57:40.608Z,2.20
2023-03-25T17:00:23.604Z,2.67
2023-03-25T17:02:50.950Z,2.70
2023-03-25T17:05:23.478Z,2.47
2023-03-25T17:08:18.345Z,2.73
2023-03-25T17:10:51.793Z,2.20
2023-03-25T17:13:25.980Z,2.50
2023-03-25T17:15:53.392Z,3.83
2023-03-25T17:18:23.254Z,3.10
2023-03-25T17:20:55.701Z,2.80
2023-03-25T17:23:30.168Z,2.30
2023-03-25T17:26:02.887Z,2.50
2023-03-25T17:28:58.406Z,3.13
2023-03-25T17:31:25.400Z,3.40
2023-03-25T17:33:58.311Z,2.80
2023-03-25T17:36:25.930Z,3.20
2023-03-25T17:38:56.786Z,3.10
2023-03-25T17:41:35.008Z,2.70
2023-03-25T17:44:02.008Z,3.13
2023-03-25T17:46:31.285Z,3.17
2023-03-25T17:48:59.745Z,3.93
2023-03-25T17:51:30.091Z,2.87
2023-03-25T17:53:57.334Z,2.70
2023-03-25T17:56:28.268Z,3.53
2023-03-25T17:59:00.878Z,2.73
2023-03-25T18:01:30.693Z,3.50
2023-03-25T18:03:58.273Z,2.50
2023-03-25T18:06:26.179Z,2.33
2023-03-25T18:08:53.305Z,2.73
2023-03-25T18:11:20.885Z,2.40
2023-03-25T18:13:48.207Z,2.67
2023-03-25T18:16:20.453Z,2.97
2023-03-25T18:18:47.962Z,3.60
2023-03-25T18:21:17.354Z,3.20
2023-03-25T18:23:47.516Z,3.63
2023-03-25T18:26:17.304Z,2.80
2023-03-25T18:28:45.420Z,3.20
2023-03-25T18:31:19.242Z,3.70
2023-03-25T18:33:53.067Z,4.33
2023-03-25T18:36:19.947Z,3.97
2023-03-25T18:38:47.678Z,3.37
2023-03-25T18:41:14.773Z,3.50
2023-03-25T18:43:42.359Z,3.90
2023-03-25T18:46:14.147Z,3.87
2023-03-25T18:48:42.378Z,4.10
2023-03-25T18:51:13.993Z,4.03
2023-03-25T18:53:41.268Z,3.87
2023-03-25T18:56:08.907Z,4.07
2023-03-25T18:58:36.472Z,3.83
2023-03-25T19:01:06.445Z,3.80
2023-03-25T19:03:39.627Z,3.90
2023-03-25T19:06:10.214Z,3.67
2023-03-25T19:08:37.458Z,3.53
2023-03-25T19:11:18.784Z,4.63
2023-03-25T19:13:48.367Z,3.37
2023-03-25T19:16:15.717Z,3.73
2023-03-25T19:18:43.196Z,2.90
2023-03-25T19:21:14.311Z,2.57
2023-03-25T19:23:41.815Z,2.67
2023-03-25T19:26:08.741Z,2.83
2023-03-25T19:28:35.569Z,2.50
2023-03-25T19:31:02.790Z,3.17
2023-03-25T19:33:31.177Z,2.50
2023-03-25T19:36:01.242Z,3.43
2023-03-25T19:38:29.601Z,2.60
2023-03-25T19:41:24.511Z,2.83
2023-03-25T19:43:51.901Z,2.80
2023-03-25T19:46:19.316Z,2.70
2023-03-25T19:48:46.523Z,3.20
2023-03-25T19:51:13.777Z,3.70
2023-03-25T19:53:40.716Z,2.60
2023-03-25T19:56:09.500Z,3.20
2023-03-25T19:58:36.314Z,3.30
2023-03-25T20:01:03.123Z,3.00
2023-03-25T20:03:31.843Z,2.50
2023-03-25T20:06:00.956Z,3.27
2023-03-25T20:08:29.444Z,4.03
2023-03-25T20:10:56.365Z,3.70
2023-03-25T20:13:23.102Z,3.50
2023-03-25T20:15:51.303Z,3.17
2023-03-25T20:18:18.654Z,3.53
2023-03-25T20:20:45.458Z,3.97
2023-03-25T20:23:12.266Z,3.20
2023-03-25T20:25:39.078Z,3.47
2023-03-25T20:28:06.136Z,3.40
2023-03-25T20:30:35.339Z,3.77
2023-03-25T20:33:02.320Z,4.37
2023-03-25T20:35:30.773Z,4.03
2023-03-25T20:37:57.585Z,4.10
2023-03-25T20:40:33.838Z,4.10
2023-03-25T20:43:04.908Z,3.27
2023-03-25T20:45:33.041Z,3.70
2023-03-25T20:48:00.295Z,3.33
2023-03-25T20:50:27.664Z,3.37
2023-03-25T20:52:54.508Z,3.60
2023-03-25T20:55:22.025Z,3.20
2023-03-25T20:57:48.766Z,4.70
2023-03-25T21:00:18.145Z,3.67
2023-03-25T21:02:45.511Z,4.10
2023-03-25T21:05:12.280Z,3.87
2023-03-25T21:07:41.089Z,4.70
2023-03-25T21:10:09.772Z,3.17
2023-03-25T21:12:43.781Z,3.17
2023-03-25T21:15:13.350Z,3.70
2023-03-25T21:17:41.354Z,3.30
2023-03-25T21:20:09.413Z,3.37
2023-03-25T21:22:42.919Z,3.50
2023-03-25T21:25:10.892Z,3.57
2023-03-25T21:27:39.340Z,3.60
2023-03-25T21:30:09.457Z,3.27
2023-03-25T21:32:39.959Z,3.20
2023-03-25T21:35:08.218Z,3.40
2023-03-25T21:37:38.405Z,3.00
2023-03-25T21:40:08.104Z,3.60
2023-03-25T21:42:38.262Z,2.80
2023-03-25T21:45:08.094Z,3.20
2023-03-25T21:47:36.547Z,3.57
2023-03-25T21:50:09.397Z,2.90
2023-03-25T21:52:37.268Z,2.97
2023-03-25T21:55:05.486Z,2.70
2023-03-25T21:57:37.575Z,2.70
2023-03-25T22:00:07.555Z,2.47
2023-03-25T22:02:34.293Z,3.17
2023-03-25T22:05:04.217Z,2.90
2023-03-25T22:07:31.155Z,3.10
2023-03-25T22:09:57.916Z,2.80
2023-03-25T22:12:25.032Z,3.87
2023-03-25T22:14:51.786Z,3.23
2023-03-25T22:17:18.861Z,3.10
2023-03-25T22:19:47.758Z,2.80
2023-03-25T22:22:18.928Z,3.30
2023-03-25T22:24:46.584Z,2.57
2023-03-25T22:27:13.783Z,3.17
2023-03-25T22:29:42.351Z,3.00
2023-03-25T22:32:09.518Z,2.80
2023-03-25T22:34:37.174Z,3.03
2023-03-25T22:37:04.450Z,3.00
2023-03-25T22:39:31.753Z,3.20
2023-03-25T22:41:58.926Z,3.33
2023-03-25T22:44:26.726Z,3.03
2023-03-25T22:46:53.501Z,3.23
2023-03-25T22:49:21.020Z,3.10
2023-03-25T22:51:48.152Z,3.10
2023-03-25T22:54:14.978Z,3.80
2023-03-25T22:56:43.561Z,4.03
2023-03-25T22:59:12.126Z,2.93
2023-03-25T23:01:39.868Z,3.97
2023-03-25T23:04:07.498Z,3.37
2023-03-25T23:06:36.320Z,3.30
2023-03-25T23:09:05.937Z,4.10
2023-03-25T23:11:33.136Z,4.33
2023-03-25T23:14:07.414Z,4.00
2023-03-25T23:16:35.603Z,4.00
2023-03-25T23:19:05.652Z,4.50
2023-03-25T23:21:33.188Z,4.73
2023-03-25T23:24:03.011Z,4.73
2023-03-25T23:26:37.115Z,4.73
2023-03-25T23:29:08.851Z,5.33
2023-03-25T23:31:41.806Z,5.10
2023-03-25T23:34:14.880Z,5.37
2023-03-25T23:36:42.882Z,5.40
2023-03-25T23:39:13.736Z,5.13
2023-03-25T23:41:49.873Z,4.57
2023-03-25T23:44:17.904Z,6.20
2023-03-25T23:46:44.956Z,4.80
2023-03-25T23:49:12.255Z,5.30
2023-03-25T23:51:41.461Z,5.33
2023-03-25T23:54:14.048Z,4.90
2023-03-25T23:56:42.123Z,6.73
2023-03-25T23:59:09.716Z,6.17
